メインページ
METAR-TAF:

METAR-TAF

空港 :

ポンタ・デルガダ空港

ポンタ・デルガダ, アゾレス諸島, ポルトガル

緯度: 37-44N, 経度: 025-42W, 海抜: 71m

現時点の気象観測

当レポートは32分前の09:00(UTC)に作成
東/南東の風 10kt
気温 15°C
湿度 100%
気圧 1023 hPa
視程: 0600m
小雨, 霧雨, 霧

METAR: LPPD 190900Z 12010KT 0600 -RADZ FG VV001 15/15 Q1023

時間: 08:32 (09:32 UTC)

予報

当レポートは32分前の09:00(UTC)に作成
予報は19日の 09時(UTC)から 20日の 06時(UTC)まで有効
南/南東の風 12kt
視程10km以上
高度200ftの雲は散在している
高度1000ftの千切れ雲あり
19日の 09時(UTC)から 19日の 21時(UTC)まで一時的に
視程: 2000m
高度100ftの雲は散在している
高度200ftの千切れ雲あり
小雨, 霧雨, 靄
確率 40% :
19日の 09時(UTC)から 19日の 16時(UTC)まで一時的に
視程: 0600m
高度100ftの
大霧雨, 霧
19日の 13時(UTC)から 19日の 15時(UTC)まで徐々に
南西の風 13kt

TAF: LPPD 190900Z 1909/2006 16012KT 9999 SCT002 BKN010 TEMPO 1909/1921 2000 -RADZ BR SCT001 BKN002 PROB40 TEMPO 1909/1916 0600 +DZ FG VV001 BECMG 1913/1915 22013KT

4,000以上の空港の気象観測と天気予報(METAR報とTAF報)

利用可能な観測所は地図上に黄色い丸と赤い丸で示す。

丸の上にカーソルを重ねると観測所名を参照できる。

次にクリックすると気象観測と天気予報を参照できる。

マップの切り替え:黒色「×」印の緑ボタンをクリックして拡大、「-」印の緑ボタンをクリックして縮小、緑色の三角印をクリックして隣りの地図に切り替え


METAR-TAF: